Time;durP1;ratioP1;P1;durP2;ratioP2;P2;SDS_P1;SDS_P2;PMS_P1;PMS_P2;Temp;Humidity;BMP_temperature;BMP_pressure;BME280_temperature;BME280_humidity;BME280_pressure;Samples;Min_cycle;Max_cycle;Signal;HPM_P1;HPM_P2
2022/11/24 00:01:37;;;;;;;28.10;12.63;;;6.80;99.90;;;;;;5018027;28;20080;-57
2022/11/24 00:04:04;;;;;;;25.25;11.68;;;6.80;99.90;;;;;;5018893;28;20077;-57
2022/11/24 00:06:32;;;;;;;24.30;12.45;;;7.00;99.90;;;;;;5017044;28;20441;-57
2022/11/24 00:08:59;;;;;;;30.25;12.98;;;6.90;99.90;;;;;;5017066;28;20072;-58
2022/11/24 00:11:29;;;;;;;23.52;10.88;;;8.80;99.90;;;;;;5018395;28;20053;-58
2022/11/24 00:13:56;;;;;;;29.27;11.75;;;6.70;99.90;;;;;;5020273;28;20721;-57
2022/11/24 00:16:25;;;;;;;24.80;11.82;;;6.90;99.90;;;;;;5018610;28;20124;-57
2022/11/24 00:18:53;;;;;;;29.65;11.52;;;6.70;99.90;;;;;;5016523;28;20153;-57
2022/11/24 00:21:20;;;;;;;28.83;11.75;;;6.70;99.90;;;;;;5015318;28;20518;-57
2022/11/24 00:23:46;;;;;;;25.65;12.70;;;6.80;99.90;;;;;;5019959;28;20045;-58
2022/11/24 00:26:22;;;;;;;25.83;11.10;;;6.50;99.90;;;;;;5018161;28;21036;-57
2022/11/24 00:28:49;;;;;;;29.10;11.05;;;6.60;99.90;;;;;;5017240;28;20138;-57
2022/11/24 00:31:30;;;;;;;24.35;11.30;;;6.50;99.90;;;;;;5018158;28;20045;-58
2022/11/24 00:33:58;;;;;;;29.10;11.32;;;6.40;99.90;;;;;;5015810;28;20147;-57
2022/11/24 00:36:27;;;;;;;30.33;11.50;;;6.60;99.90;;;;;;5020583;28;20052;-57
2022/11/24 00:38:55;;;;;;;32.03;10.88;;;8.30;99.90;;;;;;5019191;28;20149;-57
2022/11/24 00:41:21;;;;;;;29.90;10.55;;;6.40;99.90;;;;;;5021053;28;20056;-57
2022/11/24 00:43:47;;;;;;;30.80;11.77;;;6.60;99.90;;;;;;5021807;28;20054;-57
2022/11/24 00:46:12;;;;;;;30.58;11.35;;;6.40;99.90;;;;;;5018488;28;20227;-57
2022/11/24 00:48:38;;;;;;;24.27;10.27;;;6.60;99.90;;;;;;5020150;28;20037;-57
2022/11/24 00:51:07;;;;;;;24.95;10.77;;;6.50;99.90;;;;;;5019653;28;20595;-57
2022/11/24 00:53:33;;;;;;;24.80;10.35;;;6.50;99.90;;;;;;5019145;28;20095;-58
2022/11/24 00:56:01;;;;;;;34.92;10.90;;;6.40;99.90;;;;;;5017591;28;20053;-57
2022/11/24 00:58:26;;;;;;;24.95;10.00;;;6.50;99.90;;;;;;5017266;28;20053;-58
2022/11/24 01:00:52;;;;;;;30.27;9.93;;;6.50;99.90;;;;;;5020004;28;20196;-58
2022/11/24 01:03:19;;;;;;;33.63;10.38;;;6.50;99.90;;;;;;5014757;28;20065;-57
2022/11/24 01:05:45;;;;;;;29.65;9.80;;;6.40;99.90;;;;;;5017837;28;20549;-57
2022/11/24 01:08:11;;;;;;;24.08;9.63;;;6.40;99.90;;;;;;5017344;28;20191;-57
2022/11/24 01:10:37;;;;;;;27.65;8.98;;;6.50;99.90;;;;;;5017499;28;20045;-58
2022/11/24 01:13:03;;;;;;;27.88;9.65;;;6.40;99.90;;;;;;5015451;28;20072;-57
2022/11/24 01:15:29;;;;;;;26.40;9.45;;;6.50;99.90;;;;;;5017641;28;20037;-58
2022/11/24 01:17:56;;;;;;;30.15;9.35;;;6.30;99.90;;;;;;5019292;28;20052;-58
2022/11/24 01:20:22;;;;;;;28.65;9.73;;;6.10;99.90;;;;;;5014363;28;20041;-58
2022/11/24 01:22:48;;;;;;;34.33;9.60;;;6.40;99.90;;;;;;5020222;28;21105;-57
2022/11/24 01:25:14;;;;;;;31.73;8.43;;;6.50;99.90;;;;;;5014860;28;20049;-58
2022/11/24 01:27:40;;;;;;;30.33;10.30;;;6.50;99.90;;;;;;5016425;28;20052;-58
2022/11/24 01:30:07;;;;;;;25.63;7.53;;;6.40;99.90;;;;;;5015736;28;20040;-58
2022/11/24 01:32:35;;;;;;;27.48;8.57;;;6.60;99.90;;;;;;5014585;28;20033;-57
2022/11/24 01:35:01;;;;;;;24.83;8.02;;;6.50;99.90;;;;;;5016121;28;20032;-58
2022/11/24 01:37:27;;;;;;;26.95;7.15;;;6.50;99.90;;;;;;5017329;28;20044;-57
2022/11/24 01:39:53;;;;;;;31.77;8.88;;;6.70;99.90;;;;;;5015719;28;20038;-57
2022/11/24 01:42:18;;;;;;;28.13;7.72;;;6.60;99.90;;;;;;5018985;28;20513;-57
2022/11/24 01:44:44;;;;;;;29.60;7.13;;;6.60;99.90;;;;;;5016128;28;20401;-57
2022/11/24 01:47:25;;;;;;;27.98;7.60;;;6.70;99.90;;;;;;5018857;28;20138;-58
2022/11/24 01:49:54;;;;;;;30.95;7.22;;;6.60;99.90;;;;;;5015035;28;20044;-58
2022/11/24 01:52:35;;;;;;;30.80;7.65;;;7.60;99.90;;;;;;5017645;28;20450;-58
2022/11/24 01:55:14;;;;;;;31.77;7.88;;;6.60;99.90;;;;;;5018861;28;20441;-58
2022/11/24 01:57:45;;;;;;;34.78;8.57;;;6.60;99.90;;;;;;5018510;28;20141;-57
2022/11/24 02:00:13;;;;;;;29.15;8.52;;;6.70;99.90;;;;;;5016209;28;20471;-58
2022/11/24 02:02:40;;;;;;;34.00;7.35;;;6.60;99.90;;;;;;5019348;28;20124;-57
2022/11/24 02:05:19;;;;;;;37.33;7.47;;;7.10;99.90;;;;;;5018536;28;21380;-59
2022/11/24 02:07:46;;;;;;;27.45;6.80;;;6.70;99.90;;;;;;5016289;28;20052;-58
2022/11/24 02:10:14;;;;;;;31.55;7.57;;;6.70;99.90;;;;;;5017343;28;20063;-58
2022/11/24 02:12:45;;;;;;;34.15;7.45;;;7.40;99.90;;;;;;5017497;28;20042;-58
2022/11/24 02:15:12;;;;;;;27.92;7.15;;;6.80;99.90;;;;;;5018085;28;20117;-58
2022/11/24 02:17:38;;;;;;;31.48;7.55;;;7.80;99.90;;;;;;5017965;28;20059;-58
2022/11/24 02:20:07;;;;;;;30.23;6.22;;;6.60;99.90;;;;;;5017807;28;20034;-57
2022/11/24 02:23:14;;;;;;;38.85;6.82;;;6.70;99.90;;;;;;5017507;28;20873;-57
2022/11/24 02:26:09;;;;;;;34.53;6.60;;;6.60;99.90;;;;;;5016225;28;20041;-58
2022/11/24 02:28:35;;;;;;;31.05;6.60;;;6.70;99.90;;;;;;5015242;28;20045;-58
2022/11/24 02:31:02;;;;;;;28.35;5.78;;;6.90;99.90;;;;;;5014251;28;20107;-58
2022/11/24 02:33:28;;;;;;;33.53;8.18;;;7.80;99.90;;;;;;5015947;28;20509;-58
2022/11/24 02:35:54;;;;;;;26.90;5.50;;;7.00;99.90;;;;;;5016592;28;20383;-58
2022/11/24 02:38:30;;;;;;;28.63;5.15;;;6.80;99.90;;;;;;5018648;28;20114;-59
2022/11/24 02:40:57;;;;;;;24.45;5.47;;;6.80;99.90;;;;;;5016071;28;20506;-59
2022/11/24 02:43:24;;;;;;;28.55;5.78;;;6.60;99.90;;;;;;5014586;28;20041;-59
2022/11/24 02:45:50;;;;;;;30.38;5.13;;;7.70;99.90;;;;;;5016482;28;20076;-58
2022/11/24 02:48:15;;;;;;;26.15;4.97;;;7.10;99.90;;;;;;5013194;28;20533;-59
2022/11/24 02:50:41;;;;;;;29.08;6.68;;;6.50;99.90;;;;;;5016097;28;20065;-59
2022/11/24 02:53:07;;;;;;;28.23;5.40;;;6.50;99.90;;;;;;5016452;28;20043;-59
2022/11/24 02:55:32;;;;;;;26.05;5.93;;;6.40;99.90;;;;;;5014481;28;20154;-59
2022/11/24 02:57:58;;;;;;;27.70;5.03;;;6.50;99.90;;;;;;5014064;28;20053;-59
2022/11/24 03:00:24;;;;;;;30.42;5.72;;;7.30;99.90;;;;;;5046291;28;20053;-58
2022/11/24 03:02:50;;;;;;;33.97;7.05;;;6.30;99.90;;;;;;5021258;28;20425;-58
2022/11/24 03:05:16;;;;;;;28.48;6.55;;;6.30;99.90;;;;;;5016570;28;20045;-59
2022/11/24 03:07:41;;;;;;;26.33;6.65;;;6.20;99.90;;;;;;5019005;28;20033;-59
2022/11/24 03:10:07;;;;;;;23.30;5.65;;;6.50;99.90;;;;;;5017453;28;20529;-59
2022/11/24 03:12:33;;;;;;;28.60;5.47;;;6.30;99.90;;;;;;5021131;28;20398;-58
2022/11/24 03:14:59;;;;;;;39.00;5.97;;;6.60;99.90;;;;;;5019339;28;20058;-59
2022/11/24 03:17:25;;;;;;;23.63;5.32;;;6.50;99.90;;;;;;5017604;28;20156;-58
2022/11/24 03:19:50;;;;;;;28.13;5.82;;;7.30;99.90;;;;;;5020003;28;20037;-58
2022/11/24 03:22:16;;;;;;;33.90;4.80;;;6.30;99.90;;;;;;5018590;28;20103;-58
2022/11/24 03:24:42;;;;;;;26.70;5.38;;;6.50;99.90;;;;;;5018469;28;20469;-58
2022/11/24 03:27:07;;;;;;;23.38;4.63;;;7.70;99.90;;;;;;5020964;28;20067;-59
2022/11/24 03:29:33;;;;;;;32.03;5.15;;;6.60;99.90;;;;;;5020637;28;20034;-58
2022/11/24 03:31:59;;;;;;;21.67;5.00;;;6.60;99.90;;;;;;5022052;28;20132;-58
2022/11/24 03:34:25;;;;;;;24.13;4.90;;;6.50;99.90;;;;;;5019813;28;20574;-58
2022/11/24 03:36:50;;;;;;;27.33;5.20;;;8.50;99.90;;;;;;5023254;28;20064;-59
2022/11/24 03:39:16;;;;;;;23.25;3.92;;;6.70;99.90;;;;;;5019856;28;20103;-58
2022/11/24 03:41:42;;;;;;;32.40;5.90;;;7.00;99.90;;;;;;5020653;28;20037;-58
2022/11/24 03:44:07;;;;;;;24.58;4.70;;;6.70;99.90;;;;;;5019316;28;20037;-58
2022/11/24 03:46:33;;;;;;;29.15;4.78;;;6.70;99.90;;;;;;5019848;28;20048;-58
2022/11/24 03:48:59;;;;;;;29.55;4.95;;;6.70;99.90;;;;;;5020150;28;20037;-58
2022/11/24 03:51:24;;;;;;;26.90;4.65;;;6.90;99.90;;;;;;5017232;28;20037;-58
2022/11/24 03:53:50;;;;;;;24.92;5.53;;;7.60;99.90;;;;;;5020634;28;20037;-58
2022/11/24 03:56:16;;;;;;;27.55;4.75;;;6.80;99.90;;;;;;5019446;28;20053;-58
2022/11/24 03:58:41;;;;;;;18.85;4.53;;;6.70;99.90;;;;;;5019464;28;20449;-58
2022/11/24 04:01:07;;;;;;;20.77;3.67;;;7.40;99.90;;;;;;5017309;28;20203;-57
2022/11/24 04:03:33;;;;;;;30.50;4.60;;;6.80;99.90;;;;;;5014895;28;20140;-58
2022/11/24 04:05:59;;;;;;;30.15;4.60;;;6.80;99.90;;;;;;5019306;28;20041;-58
2022/11/24 04:08:24;;;;;;;20.58;4.70;;;6.90;99.90;;;;;;5015314;28;20144;-58
2022/11/24 04:10:52;;;;;;;26.30;4.53;;;6.80;99.90;;;;;;5021079;28;20037;-58
2022/11/24 04:13:23;;;;;;;23.88;4.20;;;6.80;99.90;;;;;;5018296;28;20047;-58
2022/11/24 04:15:48;;;;;;;25.35;4.25;;;6.90;99.90;;;;;;5019683;28;20517;-58
2022/11/24 04:18:14;;;;;;;23.95;4.95;;;6.80;99.90;;;;;;5020584;28;20042;-58
2022/11/24 04:20:40;;;;;;;26.63;4.32;;;6.70;99.90;;;;;;5019212;28;20052;-58
2022/11/24 04:23:07;;;;;;;20.55;4.47;;;7.90;99.90;;;;;;5017458;28;20048;-58
2022/11/24 04:25:33;;;;;;;26.80;4.57;;;7.00;99.90;;;;;;5015798;28;20059;-58
2022/11/24 04:27:58;;;;;;;19.00;3.80;;;6.80;99.90;;;;;;5020324;28;20041;-57
2022/11/24 04:30:26;;;;;;;30.85;4.97;;;6.60;99.90;;;;;;5017032;28;20414;-58
2022/11/24 04:32:52;;;;;;;20.15;4.40;;;6.60;99.90;;;;;;5019186;28;20052;-57
2022/11/24 04:35:18;;;;;;;27.13;3.80;;;6.60;99.90;;;;;;5019706;28;20127;-58
2022/11/24 04:37:44;;;;;;;22.35;4.18;;;6.60;99.90;;;;;;5019303;28;20042;-58
2022/11/24 04:40:11;;;;;;;24.35;4.45;;;6.50;99.90;;;;;;5017030;28;20061;-58
2022/11/24 04:42:37;;;;;;;16.70;3.47;;;6.60;99.90;;;;;;5018013;28;20096;-58
2022/11/24 04:45:04;;;;;;;22.63;4.57;;;6.90;99.90;;;;;;5017812;28;20166;-58
2022/11/24 04:47:30;;;;;;;21.30;3.72;;;6.60;99.90;;;;;;5020198;28;20392;-57
2022/11/24 04:49:56;;;;;;;27.38;5.25;;;6.40;99.90;;;;;;5019026;28;20053;-58
2022/11/24 04:52:23;;;;;;;20.67;4.43;;;7.30;99.90;;;;;;5018857;28;20038;-58
2022/11/24 04:54:50;;;;;;;21.88;4.15;;;6.50;99.90;;;;;;5017923;28;20048;-58
2022/11/24 04:57:17;;;;;;;30.35;4.43;;;6.50;99.90;;;;;;5015642;28;20502;-58
2022/11/24 04:59:43;;;;;;;21.77;3.72;;;6.40;99.90;;;;;;5018505;28;20103;-58
2022/11/24 05:02:09;;;;;;;23.98;4.70;;;6.60;99.90;;;;;;5019434;28;20037;-58
2022/11/24 05:04:35;;;;;;;21.85;4.25;;;6.50;99.90;;;;;;5017432;28;20034;-58
2022/11/24 05:07:01;;;;;;;20.80;3.88;;;6.30;99.90;;;;;;5019957;28;20091;-58
2022/11/24 05:09:26;;;;;;;20.00;3.47;;;6.40;99.90;;;;;;5017186;28;20044;-58
2022/11/24 05:11:52;;;;;;;23.02;4.65;;;6.50;99.90;;;;;;5017006;28;20051;-57
2022/11/24 05:14:18;;;;;;;23.48;3.92;;;6.50;99.90;;;;;;5018509;28;20044;-57
2022/11/24 05:16:44;;;;;;;22.10;4.30;;;6.50;99.90;;;;;;5016534;28;20483;-58
2022/11/24 05:19:09;;;;;;;23.20;3.90;;;6.40;99.90;;;;;;5019051;28;20133;-58
2022/11/24 05:21:35;;;;;;;18.90;4.40;;;6.30;99.90;;;;;;5015856;28;20111;-57
2022/11/24 05:24:01;;;;;;;27.02;4.93;;;6.20;99.90;;;;;;5015475;28;20095;-58
2022/11/24 05:26:27;;;;;;;17.23;3.70;;;6.20;99.90;;;;;;5017299;28;20594;-57
2022/11/24 05:28:53;;;;;;;18.80;3.72;;;6.30;99.90;;;;;;5018727;28;20048;-58
2022/11/24 05:31:19;;;;;;;19.35;3.95;;;6.20;99.90;;;;;;5016446;28;20244;-58
2022/11/24 05:33:45;;;;;;;22.27;4.85;;;6.20;99.90;;;;;;5016694;28;20033;-58
2022/11/24 05:36:51;;;;;;;30.80;5.32;;;6.20;99.90;;;;;;5015768;28;20076;-57
2022/11/24 05:38:56;;;;;;;22.20;3.30;;;6.10;99.90;;;;;;5014461;28;20096;-58
2022/11/24 05:41:22;;;;;;;28.67;4.05;;;6.00;99.90;;;;;;5016261;28;20033;-58
2022/11/24 05:43:48;;;;;;;23.75;3.92;;;5.90;99.90;;;;;;5019826;28;20036;-58
2022/11/24 05:46:14;;;;;;;24.88;4.60;;;6.10;99.90;;;;;;5016541;28;20064;-58
2022/11/24 05:48:40;;;;;;;22.90;4.68;;;;;;;;;;5018431;28;20072;-57
2022/11/24 05:51:06;;;;;;;24.88;4.18;;;;;;;;;;5013829;28;20099;-58
2022/11/24 05:53:31;;;;;;;20.05;3.65;;;6.00;99.90;;;;;;5017121;28;20042;-57
2022/11/24 05:55:57;;;;;;;27.92;4.80;;;5.90;99.90;;;;;;5016821;28;20056;-58
2022/11/24 05:58:23;;;;;;;21.70;3.70;;;6.00;99.90;;;;;;5016411;28;20677;-57
2022/11/24 06:00:48;;;;;;;29.40;5.75;;;6.10;99.90;;;;;;5017747;28;20059;-58
2022/11/24 06:03:14;;;;;;;19.67;3.83;;;6.00;99.90;;;;;;5014390;28;20200;-58
2022/11/24 06:05:45;;;;;;;23.98;4.10;;;6.00;99.90;;;;;;5019752;28;20029;-58
2022/11/24 06:08:11;;;;;;;19.80;3.60;;;5.90;99.90;;;;;;5017036;28;20057;-58
2022/11/24 06:10:37;;;;;;;24.73;4.45;;;6.00;99.90;;;;;;5016089;28;20041;-58
2022/11/24 06:13:06;;;;;;;27.80;3.40;;;6.00;99.90;;;;;;5018625;28;20402;-58
2022/11/24 06:15:36;;;;;;;20.40;4.18;;;6.10;99.90;;;;;;5016918;28;20044;-57
2022/11/24 06:18:02;;;;;;;24.65;4.35;;;;;;;;;;5017769;28;21280;-57
2022/11/24 06:20:28;;;;;;;19.95;3.67;;;6.10;99.90;;;;;;5047705;28;20056;-57
2022/11/24 06:22:57;;;;;;;20.80;3.42;;;6.00;99.90;;;;;;5017720;28;20052;-58
2022/11/24 06:25:23;;;;;;;24.13;3.75;;;6.10;99.90;;;;;;5016076;28;20059;-58
2022/11/24 06:27:49;;;;;;;23.45;5.32;;;5.90;99.90;;;;;;5013913;28;20037;-58
2022/11/24 06:30:15;;;;;;;23.85;6.15;;;6.00;99.90;;;;;;5015547;28;20045;-57
2022/11/24 06:32:43;;;;;;;30.67;4.10;;;6.00;99.90;;;;;;5015685;28;20160;-58
2022/11/24 06:35:11;;;;;;;23.05;3.55;;;5.80;99.90;;;;;;5015644;28;20455;-58
2022/11/24 06:37:37;;;;;;;24.70;4.28;;;5.80;99.90;;;;;;5013460;28;20042;-58
2022/11/24 06:40:04;;;;;;;19.38;3.13;;;5.80;99.90;;;;;;5013418;28;20045;-58
2022/11/24 06:42:30;;;;;;;16.92;3.30;;;;;;;;;;5016474;28;20513;-58
2022/11/24 06:44:56;;;;;;;21.13;3.65;;;;;;;;;;5018831;28;21155;-57
2022/11/24 06:47:21;;;;;;;19.95;3.33;;;5.90;99.90;;;;;;5015882;28;20319;-57
2022/11/24 06:49:47;;;;;;;26.42;4.13;;;5.80;99.90;;;;;;5013682;28;20510;-58
2022/11/24 06:52:13;;;;;;;25.35;4.28;;;5.80;99.90;;;;;;5017972;28;20088;-57
2022/11/24 06:54:38;;;;;;;19.10;3.45;;;6.00;99.90;;;;;;5015331;28;20080;-57
2022/11/24 06:57:04;;;;;;;16.65;3.45;;;5.90;99.90;;;;;;5013726;28;20407;-57
2022/11/24 06:59:30;;;;;;;18.38;4.45;;;6.10;99.90;;;;;;5015810;28;20041;-58
2022/11/24 07:01:55;;;;;;;18.77;3.45;;;6.10;99.90;;;;;;5013945;28;20091;-58
2022/11/24 07:04:21;;;;;;;24.67;4.30;;;6.00;99.90;;;;;;5014705;28;20053;-57
2022/11/24 07:06:46;;;;;;;17.35;3.25;;;6.00;99.90;;;;;;5016229;28;20044;-58
2022/11/24 07:09:13;;;;;;;17.17;3.97;;;6.10;99.90;;;;;;5016833;28;20052;-58
2022/11/24 07:11:40;;;;;;;18.55;4.18;;;6.20;99.90;;;;;;5016921;28;20686;-58
2022/11/24 07:14:06;;;;;;;19.73;3.97;;;6.30;99.90;;;;;;5015650;28;20671;-57
2022/11/24 07:16:32;;;;;;;29.48;6.00;;;6.10;99.90;;;;;;5013631;28;20037;-58
2022/11/24 07:18:58;;;;;;;19.50;3.92;;;6.30;99.90;;;;;;5016345;28;20053;-57
2022/11/24 07:21:25;;;;;;;15.27;3.75;;;6.20;99.90;;;;;;5015743;28;20095;-58
2022/11/24 07:23:52;;;;;;;17.85;4.00;;;6.30;99.90;;;;;;5017303;28;20076;-57
2022/11/24 07:26:18;;;;;;;22.23;4.30;;;6.20;99.90;;;;;;5013709;28;20085;-58
2022/11/24 07:28:44;;;;;;;15.65;3.00;;;6.30;99.90;;;;;;5018982;28;20065;-58
2022/11/24 07:31:16;;;;;;;14.65;4.20;;;6.40;99.90;;;;;;5017474;28;20050;-57
2022/11/24 07:33:41;;;;;;;19.40;3.50;;;6.30;99.90;;;;;;5018552;28;20037;-57
2022/11/24 07:36:08;;;;;;;19.67;4.47;;;6.40;99.90;;;;;;5013745;28;20084;-58
2022/11/24 07:38:34;;;;;;;19.98;5.10;;;6.40;99.90;;;;;;5019361;28;20048;-59
2022/11/24 07:41:03;;;;;;;19.58;4.40;;;6.30;99.90;;;;;;5032750;28;20091;-58
2022/11/24 07:43:32;;;;;;;24.42;6.07;;;6.30;99.90;;;;;;5042533;28;20346;-56
2022/11/24 07:46:07;;;;;;;27.23;4.95;;;6.30;99.90;;;;;;5045376;28;20059;-59
2022/11/24 07:48:35;;;;;;;18.83;4.70;;;6.30;99.90;;;;;;5051903;28;20038;-59
2022/11/24 07:51:05;;;;;;;21.77;4.72;;;6.30;99.90;;;;;;5049029;28;20052;-56
2022/11/24 07:53:34;;;;;;;22.98;4.97;;;6.20;99.90;;;;;;5052520;28;20045;-61
2022/11/24 07:56:05;;;;;;;21.35;5.60;;;6.20;99.90;;;;;;5047586;28;20151;-52
2022/11/24 07:58:35;;;;;;;20.98;5.55;;;6.10;99.90;;;;;;5048838;28;20061;-56
2022/11/24 08:01:17;;;;;;;22.15;5.78;;;6.20;99.90;;;;;;5046055;28;20062;-51
2022/11/24 08:03:45;;;;;;;23.08;5.35;;;6.20;99.90;;;;;;5040669;28;20144;-55
2022/11/24 08:06:13;;;;;;;21.13;5.40;;;6.30;99.90;;;;;;5024439;28;20143;-50
2022/11/24 08:08:38;;;;;;;27.65;7.03;;;6.20;99.90;;;;;;5017142;28;20037;-48
2022/11/24 08:11:06;;;;;;;20.15;5.75;;;6.30;99.90;;;;;;5017596;28;20037;-51
2022/11/24 08:13:32;;;;;;;24.60;5.93;;;6.20;99.90;;;;;;5017595;28;20033;-49
2022/11/24 08:15:58;;;;;;;17.27;5.47;;;6.10;99.90;;;;;;5017258;28;20044;-51
2022/11/24 08:18:24;;;;;;;23.30;6.00;;;6.20;99.90;;;;;;5018793;28;20753;-48
2022/11/24 08:20:49;;;;;;;14.68;5.32;;;6.10;99.90;;;;;;5017689;28;20083;-49
2022/11/24 08:23:15;;;;;;;18.75;4.63;;;6.20;99.90;;;;;;5018115;28;20042;-48
2022/11/24 08:25:41;;;;;;;21.35;4.78;;;6.10;99.90;;;;;;5018645;28;20037;-50
2022/11/24 08:28:06;;;;;;;19.27;5.00;;;8.30;99.90;;;;;;5014902;28;20206;-50
2022/11/24 08:30:32;;;;;;;18.13;5.20;;;6.50;99.90;;;;;;5019881;28;20045;-49
2022/11/24 08:33:00;;;;;;;18.80;5.22;;;6.50;99.90;;;;;;5019550;28;20981;-47
2022/11/24 08:35:27;;;;;;;17.77;4.70;;;8.90;99.90;;;;;;5018345;28;20509;-50
2022/11/24 08:37:53;;;;;;;17.25;4.82;;;7.70;99.90;;;;;;5020511;28;20046;-51
2022/11/24 08:40:19;;;;;;;20.60;4.90;;;10.30;99.90;;;;;;5023635;28;20041;-53
2022/11/24 08:42:45;;;;;;;18.92;5.57;;;9.40;99.90;;;;;;5019794;28;20128;-50
2022/11/24 08:45:11;;;;;;;20.88;5.95;;;10.50;99.90;;;;;;5018365;28;20056;-50
2022/11/24 08:47:37;;;;;;;18.35;4.60;;;9.00;99.90;;;;;;5020516;28;20124;-50
2022/11/24 08:50:04;;;;;;;17.83;5.65;;;9.50;99.90;;;;;;5022552;28;20460;-50
2022/11/24 08:52:30;;;;;;;14.73;4.45;;;8.30;99.90;;;;;;5023316;28;20132;-48
2022/11/24 08:54:57;;;;;;;21.30;5.10;;;8.00;99.90;;;;;;5021920;28;20077;-49
2022/11/24 08:57:23;;;;;;;18.95;5.13;;;8.00;99.90;;;;;;5022029;28;20142;-50
2022/11/24 08:59:49;;;;;;;17.52;4.90;;;7.60;99.90;;;;;;5018056;28;20053;-50
2022/11/24 09:02:15;;;;;;;14.63;4.63;;;7.60;99.90;;;;;;5019893;28;20053;-49
2022/11/24 09:04:40;;;;;;;17.15;4.28;;;7.60;99.90;;;;;;5022656;28;20036;-49
2022/11/24 09:07:06;;;;;;;15.32;4.07;;;7.80;99.90;;;;;;5017201;28;20037;-50
2022/11/24 09:09:32;;;;;;;15.40;4.15;;;8.10;99.90;;;;;;5018050;28;20533;-53
2022/11/24 09:11:57;;;;;;;14.32;3.90;;;8.10;99.90;;;;;;5021528;28;20100;-53
2022/11/24 09:14:23;;;;;;;16.83;4.50;;;8.80;99.90;;;;;;5019154;28;20044;-49
2022/11/24 09:16:49;;;;;;;11.65;3.08;;;8.00;99.90;;;;;;5020506;28;20265;-53
2022/11/24 09:19:14;;;;;;;9.68;3.28;;;8.90;99.90;;;;;;5020731;28;20045;-51
2022/11/24 09:21:40;;;;;;;14.50;3.60;;;8.70;99.90;;;;;;5017302;28;20986;-51
2022/11/24 09:24:07;;;;;;;13.43;4.22;;;8.60;99.90;;;;;;5017110;28;20037;-49
2022/11/24 09:26:35;;;;;;;12.30;3.53;;;8.90;99.90;;;;;;5019853;28;20075;-48
2022/11/24 09:29:03;;;;;;;11.13;3.40;;;10.90;99.90;;;;;;5019350;28;20095;-49
2022/11/24 09:31:33;;;;;;;10.35;3.50;;;11.10;99.90;;;;;;5017963;28;20448;-51
2022/11/24 09:34:00;;;;;;;10.43;2.90;;;10.40;99.90;;;;;;5018445;28;20112;-52
2022/11/24 09:36:27;;;;;;;13.93;3.13;;;9.30;99.90;;;;;;5015990;28;20065;-49
2022/11/24 09:38:53;;;;;;;10.85;2.63;;;9.50;99.90;;;;;;5018184;28;20049;-50
2022/11/24 09:41:38;;;;;;;11.07;2.78;;;9.60;99.90;;;;;;5016002;28;20037;-49
2022/11/24 09:44:30;;;;;;;9.32;2.50;;;9.80;99.90;;;;;;5017633;28;20111;-49
2022/11/24 09:47:24;;;;;;;7.03;2.10;;;9.80;99.90;;;;;;5021086;28;20044;-51
2022/11/24 09:50:00;;;;;;;7.25;2.03;;;8.50;99.90;;;;;;5020647;28;20044;-50
2022/11/24 09:52:58;;;;;;;9.93;2.38;;;10.40;99.90;;;;;;5021698;28;20040;-51
2022/11/24 09:55:40;;;;;;;8.32;2.50;;;10.70;99.90;;;;;;5017997;28;20128;-52
2022/11/24 09:58:26;;;;;;;8.15;2.22;;;11.10;99.90;;;;;;5017978;28;20048;-48
2022/11/24 10:00:53;;;;;;;8.45;2.13;;;11.00;99.90;;;;;;5020899;28;20040;-52
2022/11/24 10:03:25;;;;;;;10.60;2.65;;;11.00;99.90;;;;;;5016628;28;20797;-51
2022/11/24 10:05:51;;;;;;;;;;;11.00;99.90;;;;;;5019123;28;20059;-48
2022/11/24 10:08:26;;;;;;;7.57;2.60;;;10.40;99.90;;;;;;5017430;28;19925;-51
2022/11/24 10:11:10;;;;;;;8.80;2.47;;;10.10;99.90;;;;;;5016094;28;20050;-49
2022/11/24 10:14:06;;;;;;;9.70;2.85;;;9.60;99.90;;;;;;5017127;28;20409;-50
2022/11/24 10:17:06;;;;;;;9.02;2.35;;;9.60;99.90;;;;;;5018933;28;20041;-50
2022/11/24 10:19:53;;;;;;;8.82;2.20;;;9.40;99.90;;;;;;5016734;28;20045;-48
2022/11/24 10:22:39;;;;;;;7.00;1.98;;;9.30;99.90;;;;;;5017196;28;20721;-49
2022/11/24 10:25:24;;;;;;;7.55;2.05;;;9.20;99.90;;;;;;5016934;28;20037;-51
2022/11/24 10:28:03;;;;;;;8.40;2.40;;;9.30;99.90;;;;;;5018546;28;21248;-49
2022/11/24 10:30:29;;;;;;;8.70;2.30;;;9.10;99.90;;;;;;5019928;28;20480;-49
2022/11/24 10:33:02;;;;;;;7.93;2.58;;;8.10;99.90;;;;;;5017277;28;20041;-53
2022/11/24 10:35:44;;;;;;;10.98;2.03;;;9.20;99.90;;;;;;5019295;28;20041;-52
2022/11/24 10:38:24;;;;;;;8.35;2.25;;;10.10;99.90;;;;;;5019137;28;20045;-53
2022/11/24 10:41:04;;;;;;;10.80;2.60;;;9.40;99.90;;;;;;5016962;28;20586;-51
2022/11/24 10:43:30;;;;;;;8.80;3.00;;;9.40;99.90;;;;;;5017250;28;20045;-50
2022/11/24 10:46:10;;;;;;;8.90;2.63;;;10.90;99.90;;;;;;5018050;28;20723;-54
2022/11/24 10:48:57;;;;;;;8.75;2.42;;;9.80;99.90;;;;;;5015260;28;20076;-50
2022/11/24 10:51:29;;;;;;;10.35;2.50;;;9.50;99.90;;;;;;5016419;28;20041;-49
2022/11/24 10:54:04;;;;;;;10.98;3.42;;;9.60;99.90;;;;;;5018742;28;20772;-51
2022/11/24 10:56:44;;;;;;;8.93;2.47;;;9.70;99.90;;;;;;5015629;28;20057;-52
2022/11/24 10:59:23;;;;;;;10.50;3.05;;;10.50;99.90;;;;;;5016881;28;20040;-52
2022/11/24 11:01:50;;;;;;;10.88;2.63;;;10.30;99.90;;;;;;5015142;28;20107;-48
2022/11/24 11:04:19;;;;;;;8.57;2.55;;;9.70;99.90;;;;;;5016687;28;20124;-52
2022/11/24 11:06:45;;;;;;;10.35;2.38;;;10.50;99.90;;;;;;5015773;28;20053;-51
2022/11/24 11:09:21;;;;;;;11.57;2.92;;;9.70;99.90;;;;;;5019675;28;20073;-53
2022/11/24 11:11:47;;;;;;;11.15;2.83;;;11.80;99.90;;;;;;5021022;28;20034;-52
2022/11/24 11:14:29;;;;;;;10.80;2.55;;;9.80;99.90;;;;;;5019926;28;20447;-49
2022/11/24 11:16:56;;;;;;;9.82;2.53;;;10.80;99.90;;;;;;5018865;28;20037;-51
2022/11/24 11:19:31;;;;;;;12.20;2.60;;;9.90;99.90;;;;;;5018165;28;20049;-49
2022/11/24 11:22:00;;;;;;;9.40;2.40;;;10.00;99.90;;;;;;5018220;28;20037;-52
2022/11/24 11:24:27;;;;;;;10.43;2.50;;;11.40;99.90;;;;;;5020885;28;20417;-53
2022/11/24 11:27:05;;;;;;;9.65;2.30;;;10.00;99.90;;;;;;5020366;28;22196;-51
2022/11/24 11:29:31;;;;;;;9.65;2.13;;;11.50;99.90;;;;;;5021958;28;20037;-52
2022/11/24 11:32:21;;;;;;;10.45;2.20;;;10.00;99.90;;;;;;5022982;28;20045;-51
2022/11/24 11:34:48;;;;;;;10.02;2.35;;;10.10;99.90;;;;;;5019008;28;20049;-49
2022/11/24 11:37:15;;;;;;;11.05;2.30;;;10.20;99.90;;;;;;5017342;28;20060;-50
2022/11/24 11:39:46;;;;;;;12.93;2.83;;;10.00;99.90;;;;;;5018071;28;20120;-51
2022/11/24 11:42:31;;;;;;;8.15;2.47;;;10.30;99.90;;;;;;5022033;28;20076;-52
2022/11/24 11:45:04;;;;;;;10.40;2.47;;;10.20;99.90;;;;;;5019714;28;20124;-53
2022/11/24 11:47:33;;;;;;;10.68;2.50;;;10.10;99.90;;;;;;5024661;28;20037;-51
2022/11/24 11:49:58;;;;;;;13.50;3.15;;;10.10;99.90;;;;;;5019577;28;20049;-51
2022/11/24 11:52:39;;;;;;;12.48;2.55;;;10.10;99.90;;;;;;5019823;28;20450;-52
2022/11/24 11:55:07;;;;;;;12.63;3.47;;;10.30;99.90;;;;;;5021327;28;20073;-52
2022/11/24 11:58:00;;;;;;;11.95;2.35;;;10.40;99.90;;;;;;5020043;28;20049;-50
2022/11/24 12:00:27;;;;;;;11.77;2.53;;;12.60;99.90;;;;;;5018549;28;20049;-50
2022/11/24 12:02:58;;;;;;;9.35;2.30;;;10.40;99.90;;;;;;5019377;28;20406;-51
2022/11/24 12:05:36;;;;;;;13.43;3.00;;;10.30;99.90;;;;;;5018715;28;20616;-49
2022/11/24 12:08:23;;;;;;;13.00;2.50;;;10.20;99.90;;;;;;5016622;28;20127;-51
2022/11/24 12:11:08;;;;;;;13.73;2.97;;;10.40;99.90;;;;;;5020103;28;20046;-48
2022/11/24 12:13:45;;;;;;;11.00;2.33;;;10.40;99.90;;;;;;5019510;28;20457;-51
2022/11/24 12:16:28;;;;;;;18.40;2.75;;;10.30;99.90;;;;;;5021840;28;20111;-53
2022/11/24 12:19:25;;;;;;;13.80;3.75;;;12.00;99.90;;;;;;5020692;28;20226;-53
2022/11/24 12:22:04;;;;;;;12.38;3.03;;;10.30;99.90;;;;;;5017355;28;20045;-52
2022/11/24 12:25:12;;;;;;;12.43;2.95;;;10.30;99.90;;;;;;5018289;28;20281;-49
2022/11/24 12:27:47;;;;;;;15.80;2.67;;;10.40;99.90;;;;;;5019776;28;20036;-52
2022/11/24 12:30:18;;;;;;;12.45;2.90;;;10.20;99.90;;;;;;5018018;28;20034;-51
2022/11/24 12:33:15;;;;;;;9.77;2.47;;;11.30;99.90;;;;;;5018789;28;20045;-53
2022/11/24 12:36:29;;;;;;;9.40;2.53;;;12.20;99.90;;;;;;5018114;28;20049;-50
2022/11/24 12:39:05;;;;;;;13.77;3.05;;;10.50;99.90;;;;;;5017204;28;20136;-50
2022/11/24 12:42:04;;;;;;;15.75;3.20;;;10.30;99.90;;;;;;5019958;28;20044;-49
2022/11/24 12:44:39;;;;;;;11.40;3.28;;;10.50;99.90;;;;;;5020901;28;20128;-47
2022/11/24 12:47:23;;;;;;;14.40;2.97;;;10.40;99.90;;;;;;5021566;28;21076;-50
2022/11/24 12:50:01;;;;;;;13.20;2.83;;;10.40;99.90;;;;;;5020680;28;20175;-52
2022/11/24 12:52:35;;;;;;;13.95;2.90;;;10.50;99.90;;;;;;5030534;28;20048;-48
2022/11/24 12:55:02;;;;;;;11.48;2.70;;;10.40;99.90;;;;;;5017738;28;20057;-50
2022/11/24 12:57:41;;;;;;;11.18;3.03;;;10.40;99.90;;;;;;5019444;28;20057;-49
2022/11/24 13:00:55;;;;;;;11.52;2.55;;;10.20;99.90;;;;;;5019944;28;20041;-49
2022/11/24 13:03:47;;;;;;;12.38;2.80;;;8.40;99.90;;;;;;5012359;28;20054;-51